Aérodrome :
LOGIN :

S'inscrire | Disclaimer

   EN    FR    IT 

 










Légende :    VFR   VFR Marginal   IFR   IFR Intensif   IFR Très Intensif
Visi : 
Plafond : 
>= 8 km
>= 3000ft
5 à 8 km
1000 à 3000 ft
1500m à 5 km
500 à 1000 ft
800 à 1500m
200 à 500 ft
< 800m
< 200 ft
Symboles :   Orages  Brouillard  Fortes neiges  Fortes précipitations  Vent > 20 kt
SIGMETs :   Divers  Orages  Givrage  Turbulence  Onde Orograph.  Cendres Volcan.






- Altitude de l'aérodrome : 408 ft
- Code IATA : FKB


EDSB - Karlsruhe Baden Baden

DERNIER METAR :
  • 301620Z VRB02KT CAVOK 30/16 Q1008

METARs EXPIRÉS :
  • 301550Z VRB01KT CAVOK 30/16 Q1008
  • 301520Z VRB02KT CAVOK 30/16 Q1008
  • 301450Z 29003KT 210V010 CAVOK 30/16 Q1009
  • 301420Z 36004KT 290V060 CAVOK 30/16 Q1009
  • 301350Z 35005KT 300V040 CAVOK 30/16 Q1009

TAF AMD TAF EDSB
Valide du 30 à 14h jusqu'au 01 à 12h UTC


301435Z 3014/0112 36004KT CAVOK
BECMG 3014/3017 25006KT
TEMPO 3015/3021 30020G35KT 2500 +TSRA BKN009 BKN035CB
PROB40
TEMPO 3021/0101 30015G25KT 4000 TSRA BKN035CB



MET'MAP, la Météo Aéronautique d'un coup d'oeil ! - Copyright ORBIFLY Décembre 2007 - Disclaimer

ORBIFLY MET'MAP TEAM :

Programmation & Développement : Alexandra Zaïnal
Sur une idée originale de : Baudouin d'Aumeries
Soutien technique & logistique : Manuel Goepfert
Assistance : Marc-Olivier Méhu




SOURCES & CREDITS :

   NOAA